Fisher, Pennsylvania
Current Conditions -  °F | °C
As of 6:24 PM on Thursday 27 Nov 2014 (Local Time) from KDUJ Reporting Station
Light Snow Light Snow  
Wind Chill: 19°   Ceiling: 1200
Heat Index: 29°   Visibility: 1.7mi
Dew Point: 25°   Wind: 13mph
Humidity: 85%   Direction: 290°WNW
Pressure: 30.06"   Gusts: 22mph
Location:  41.26°N, 79.24°W
Report Text: KDUJ 272324Z AUTO 29011G19KT 1 3/4SM -SN BR FEW008 BKN012 OVC036 M02/M04 A3006 RMK AO2 P0000 T10171039
Loading
Personal Weather Stations






























Interactive Weather Map New forecast layout! Learn more

10-Day Weather Forecast

Advertisements
Track Severe Weather on mobile